createdAt,value
2018-12-22T00:00:10.424Z,9.90
2018-12-22T00:02:39.533Z,9.90
2018-12-22T00:05:08.034Z,9.90
2018-12-22T00:07:36.817Z,9.90
2018-12-22T00:10:05.712Z,9.80
2018-12-22T00:12:34.289Z,9.80
2018-12-22T00:15:03.099Z,9.70
2018-12-22T00:17:32.112Z,9.80
2018-12-22T00:20:01.806Z,9.80
2018-12-22T00:22:30.375Z,9.90
2018-12-22T00:24:58.956Z,9.90
2018-12-22T00:27:27.656Z,9.90
2018-12-22T00:29:56.227Z,9.80
2018-12-22T00:32:24.812Z,9.80
2018-12-22T00:34:53.338Z,9.90
2018-12-22T00:37:21.842Z,9.80
2018-12-22T00:39:50.393Z,9.70
2018-12-22T00:42:19.106Z,9.70
2018-12-22T00:44:47.986Z,9.80
2018-12-22T00:47:16.529Z,9.70
2018-12-22T00:49:45.142Z,9.60
2018-12-22T00:52:13.734Z,9.60
2018-12-22T00:54:42.503Z,9.60
2018-12-22T00:57:10.983Z,9.60
2018-12-22T00:59:39.515Z,9.60
2018-12-22T01:02:08.520Z,9.60
2018-12-22T01:04:37.100Z,9.60
2018-12-22T01:07:06.077Z,9.60
2018-12-22T01:09:34.805Z,9.70
2018-12-22T01:12:03.338Z,9.60
2018-12-22T01:14:31.834Z,9.60
2018-12-22T01:17:00.410Z,9.60
2018-12-22T01:19:28.911Z,9.60
2018-12-22T01:21:58.086Z,9.60
2018-12-22T01:24:26.624Z,9.50
2018-12-22T01:26:55.205Z,9.50
2018-12-22T01:29:24.040Z,9.60
2018-12-22T01:31:52.770Z,9.60
2018-12-22T01:34:21.333Z,9.60
2018-12-22T01:36:50.198Z,9.60
2018-12-22T01:39:18.863Z,9.60
2018-12-22T01:41:47.404Z,9.60
2018-12-22T01:44:15.958Z,9.60
2018-12-22T01:46:44.546Z,9.60
2018-12-22T01:49:13.488Z,9.60
2018-12-22T01:51:42.160Z,9.60
2018-12-22T01:54:10.835Z,9.50
2018-12-22T01:56:39.494Z,9.50
2018-12-22T01:59:08.153Z,9.60
2018-12-22T02:01:36.703Z,9.70
2018-12-22T02:04:05.358Z,9.70
2018-12-22T02:06:36.315Z,9.90
2018-12-22T02:09:07.025Z,10.00
2018-12-22T02:11:35.722Z,9.90
2018-12-22T02:14:04.496Z,9.80
2018-12-22T02:16:33.174Z,9.80
2018-12-22T02:19:01.827Z,9.90
2018-12-22T02:21:30.554Z,9.80
2018-12-22T02:23:59.355Z,9.60
2018-12-22T02:26:28.750Z,9.60
2018-12-22T02:28:57.497Z,9.70
2018-12-22T02:31:26.107Z,9.80
2018-12-22T02:33:54.642Z,9.70
2018-12-22T02:36:23.415Z,9.70
2018-12-22T02:38:52.153Z,9.70
2018-12-22T02:41:21.025Z,9.70
2018-12-22T02:43:49.926Z,9.70
2018-12-22T02:46:18.760Z,9.70
2018-12-22T02:48:47.812Z,9.80
2018-12-22T02:51:16.542Z,9.80
2018-12-22T02:53:45.426Z,9.80
2018-12-22T02:56:14.222Z,9.90
2018-12-22T02:58:43.508Z,10.00
2018-12-22T03:01:12.076Z,10.00
2018-12-22T03:03:40.800Z,10.00
2018-12-22T03:06:09.382Z,10.00
2018-12-22T03:08:37.959Z,10.00
2018-12-22T03:11:06.616Z,10.00
2018-12-22T03:13:35.339Z,10.00
2018-12-22T03:16:04.715Z,10.00
2018-12-22T03:18:33.430Z,10.00
2018-12-22T03:21:02.790Z,10.00
2018-12-22T03:26:07.450Z,10.10
2018-12-22T03:28:36.190Z,10.10
2018-12-22T03:31:05.049Z,10.10
2018-12-22T03:33:34.151Z,10.10
2018-12-22T03:36:02.680Z,10.10
2018-12-22T03:38:31.296Z,10.10
2018-12-22T03:41:00.572Z,10.10
2018-12-22T03:43:29.152Z,10.10
2018-12-22T03:45:57.957Z,10.10
2018-12-22T03:48:26.725Z,10.00
2018-12-22T03:50:55.350Z,10.00
2018-12-22T03:53:24.002Z,10.00
2018-12-22T03:55:52.506Z,10.00
2018-12-22T03:58:20.977Z,10.00
2018-12-22T04:00:49.836Z,10.00
2018-12-22T04:03:18.603Z,10.00
2018-12-22T04:05:47.255Z,10.00
2018-12-22T04:08:16.118Z,9.90
2018-12-22T04:10:44.633Z,9.90
2018-12-22T04:13:13.195Z,9.90
2018-12-22T04:15:41.907Z,9.90
2018-12-22T04:18:10.761Z,9.90
2018-12-22T04:20:39.378Z,9.90
2018-12-22T04:23:07.869Z,9.80
2018-12-22T04:25:36.626Z,9.80
2018-12-22T04:28:05.117Z,9.80
2018-12-22T04:30:33.768Z,9.80
2018-12-22T04:33:02.698Z,9.80
2018-12-22T04:35:31.247Z,9.80
2018-12-22T04:38:00.355Z,9.80
2018-12-22T04:40:28.854Z,9.80
2018-12-22T04:42:57.375Z,9.80
2018-12-22T04:45:26.304Z,9.80
2018-12-22T04:47:54.985Z,9.80
2018-12-22T04:50:28.859Z,9.70
2018-12-22T04:52:57.445Z,9.70
2018-12-22T04:55:25.908Z,9.70
2018-12-22T04:57:54.434Z,9.70
2018-12-22T05:00:23.179Z,9.80
2018-12-22T05:02:51.700Z,9.70
2018-12-22T05:05:20.293Z,9.70
2018-12-22T05:07:48.795Z,9.60
2018-12-22T05:10:17.301Z,9.60
2018-12-22T05:12:46.107Z,9.60
2018-12-22T05:15:14.530Z,9.60
2018-12-22T05:17:43.337Z,9.60
2018-12-22T05:20:11.762Z,9.60
2018-12-22T05:22:40.477Z,9.60
2018-12-22T05:25:09.381Z,9.60
2018-12-22T05:27:37.917Z,9.60
2018-12-22T05:30:08.044Z,9.60
2018-12-22T05:32:36.630Z,9.60
2018-12-22T05:35:05.539Z,9.60
2018-12-22T05:37:34.041Z,9.60
2018-12-22T05:40:02.795Z,9.60
2018-12-22T05:42:31.489Z,9.60
2018-12-22T05:45:00.205Z,9.60
2018-12-22T05:47:28.718Z,9.50
2018-12-22T05:49:57.456Z,9.60
2018-12-22T05:52:26.181Z,9.60
2018-12-22T05:54:54.839Z,9.60
2018-12-22T05:57:23.499Z,9.70
2018-12-22T06:00:00.209Z,9.70
2018-12-22T06:02:22.498Z,9.70
2018-12-22T06:04:51.374Z,9.80
2018-12-22T06:07:19.913Z,9.80
2018-12-22T06:09:48.644Z,9.90
2018-12-22T06:12:17.495Z,9.90
2018-12-22T06:14:46.066Z,9.90
2018-12-22T06:17:14.747Z,9.90
2018-12-22T06:19:43.433Z,9.90
2018-12-22T06:22:12.395Z,9.90
2018-12-22T06:24:40.985Z,9.90
2018-12-22T06:27:09.526Z,9.90
2018-12-22T06:29:38.080Z,10.00
2018-12-22T06:32:06.640Z,10.00
2018-12-22T06:34:35.660Z,10.00
2018-12-22T06:37:04.587Z,10.00
2018-12-22T06:39:33.415Z,10.00
2018-12-22T06:42:02.345Z,10.00
2018-12-22T06:44:30.930Z,10.00
2018-12-22T06:46:59.521Z,10.00
2018-12-22T06:49:28.001Z,10.00
2018-12-22T06:51:56.466Z,10.00
2018-12-22T06:54:25.035Z,10.00
2018-12-22T06:56:53.578Z,10.10
2018-12-22T06:59:22.088Z,9.90
2018-12-22T07:01:50.658Z,9.80
2018-12-22T07:04:19.136Z,9.90
2018-12-22T07:06:47.861Z,9.80
2018-12-22T07:09:16.536Z,9.90
2018-12-22T07:11:45.211Z,9.90
2018-12-22T07:14:13.767Z,10.00
2018-12-22T07:16:43.083Z,9.90
2018-12-22T07:19:12.249Z,10.00
2018-12-22T07:21:40.737Z,10.00
2018-12-22T07:24:10.409Z,9.90
2018-12-22T07:26:39.089Z,9.80
2018-12-22T07:29:08.372Z,9.80
2018-12-22T07:31:37.033Z,10.00
2018-12-22T07:34:05.627Z,9.90
2018-12-22T07:36:34.358Z,10.30
2018-12-22T07:39:02.959Z,10.70
2018-12-22T07:41:31.555Z,10.90
2018-12-22T07:44:00.267Z,11.00
2018-12-22T07:46:28.952Z,11.20
2018-12-22T07:51:25.694Z,10.20
2018-12-22T07:53:55.783Z,10.00
2018-12-22T07:56:24.475Z,9.80
2018-12-22T07:58:53.354Z,9.60
2018-12-22T08:01:21.876Z,9.50
2018-12-22T08:03:50.733Z,9.40
2018-12-22T08:06:19.373Z,9.30
2018-12-22T08:08:47.918Z,9.30
2018-12-22T08:11:16.605Z,9.60
2018-12-22T08:13:45.433Z,9.70
2018-12-22T08:16:13.947Z,9.50
2018-12-22T08:18:42.878Z,9.50
2018-12-22T08:21:11.980Z,9.50
2018-12-22T08:23:40.825Z,9.40
2018-12-22T08:26:09.655Z,9.40
2018-12-22T08:28:38.325Z,9.40
2018-12-22T08:31:07.090Z,9.30
2018-12-22T08:33:35.702Z,9.30
2018-12-22T08:36:04.714Z,9.20
2018-12-22T08:38:33.214Z,9.30
2018-12-22T08:41:02.068Z,9.40
2018-12-22T08:43:30.907Z,9.50
2018-12-22T08:45:59.611Z,9.30
2018-12-22T08:48:28.472Z,9.30
2018-12-22T08:50:57.341Z,9.30
2018-12-22T08:53:25.845Z,9.40
2018-12-22T08:55:55.723Z,9.40
2018-12-22T08:58:24.759Z,9.50
2018-12-22T09:00:54.125Z,9.50
2018-12-22T09:03:22.601Z,9.50
2018-12-22T09:05:51.420Z,9.40
2018-12-22T09:08:20.173Z,9.30
2018-12-22T09:10:48.933Z,9.30
2018-12-22T09:13:20.923Z,9.20
2018-12-22T09:15:48.151Z,9.30
2018-12-22T09:18:16.883Z,9.40
2018-12-22T09:20:52.231Z,9.30
2018-12-22T09:23:20.861Z,9.30
2018-12-22T09:25:49.887Z,9.00
2018-12-22T09:28:18.533Z,9.20
2018-12-22T09:30:47.166Z,9.30
2018-12-22T09:33:15.831Z,9.10
2018-12-22T09:35:44.431Z,9.10
2018-12-22T09:38:13.171Z,8.90
2018-12-22T09:40:41.771Z,8.90
2018-12-22T09:45:39.353Z,9.00
2018-12-22T09:50:36.222Z,9.00
2018-12-22T09:53:05.154Z,9.10
2018-12-22T09:55:33.731Z,9.10
2018-12-22T09:58:02.431Z,9.10
2018-12-22T10:00:31.105Z,9.10
2018-12-22T10:05:28.974Z,9.10
2018-12-22T10:07:57.670Z,9.10
2018-12-22T10:10:26.577Z,9.10
2018-12-22T10:15:23.633Z,9.90
2018-12-22T10:17:52.218Z,10.90
2018-12-22T10:22:49.277Z,11.40
2018-12-22T10:25:18.323Z,11.00
2018-12-22T10:27:46.812Z,11.30
2018-12-22T10:30:17.323Z,11.20
2018-12-22T10:40:13.512Z,10.80
2018-12-22T10:45:10.996Z,10.50
2018-12-22T10:47:40.359Z,10.70
2018-12-22T10:52:37.575Z,10.50
2018-12-22T10:55:07.574Z,10.30
2018-12-22T10:57:36.483Z,10.60
2018-12-22T11:00:07.338Z,10.60
2018-12-22T11:02:36.142Z,10.70
2018-12-22T11:05:06.490Z,10.80
2018-12-22T11:10:05.872Z,11.00
2018-12-22T11:12:34.837Z,10.70
2018-12-22T11:15:03.961Z,10.80
2018-12-22T11:22:29.288Z,10.60
2018-12-22T11:24:58.838Z,10.30
2018-12-22T11:27:27.665Z,10.50
2018-12-22T11:32:24.465Z,10.40
2018-12-22T11:34:53.604Z,10.50
2018-12-22T11:39:50.981Z,10.70
2018-12-22T11:42:20.233Z,10.60
2018-12-22T11:44:48.988Z,10.60
2018-12-22T11:47:26.687Z,10.80
2018-12-22T11:49:55.358Z,12.20
2018-12-22T11:52:24.291Z,12.60
2018-12-22T11:54:53.425Z,12.40
2018-12-22T11:57:22.055Z,12.20
2018-12-22T11:59:50.860Z,11.50
2018-12-22T12:02:20.078Z,11.50
2018-12-22T12:04:49.675Z,11.30
2018-12-22T12:07:18.400Z,11.20
2018-12-22T12:09:48.185Z,11.20
2018-12-22T12:12:16.940Z,11.20
2018-12-22T12:14:48.574Z,11.20
2018-12-22T12:17:59.441Z,11.10
2018-12-22T12:20:28.144Z,11.00
2018-12-22T12:22:56.766Z,10.80
2018-12-22T12:25:25.880Z,10.80
2018-12-22T12:27:54.850Z,10.70
2018-12-22T12:30:23.849Z,10.70
2018-12-22T12:32:53.083Z,10.60
2018-12-22T12:35:21.788Z,10.60
2018-12-22T12:37:51.139Z,10.60
2018-12-22T12:40:19.898Z,10.60
2018-12-22T12:42:48.892Z,10.50
2018-12-22T12:45:17.544Z,10.40
2018-12-22T12:47:47.344Z,10.40
2018-12-22T12:50:18.231Z,10.30
2018-12-22T12:52:46.921Z,10.30
2018-12-22T12:55:15.481Z,10.20
2018-12-22T12:57:44.146Z,10.20
2018-12-22T13:00:14.847Z,10.20
2018-12-22T13:02:43.811Z,10.20
2018-12-22T13:05:12.511Z,10.30
2018-12-22T13:07:41.585Z,10.40
2018-12-22T13:10:11.496Z,10.30
2018-12-22T13:12:49.052Z,10.30
2018-12-22T13:15:17.909Z,10.30
2018-12-22T13:17:46.588Z,10.30
2018-12-22T13:20:15.535Z,10.30
2018-12-22T13:22:45.690Z,10.30
2018-12-22T13:25:14.295Z,10.30
2018-12-22T13:27:43.212Z,10.30
2018-12-22T13:30:12.616Z,10.30
2018-12-22T13:32:41.398Z,10.40
2018-12-22T13:35:10.353Z,10.40
2018-12-22T13:37:41.973Z,10.50
2018-12-22T13:40:11.048Z,10.40
2018-12-22T13:42:40.065Z,10.50
2018-12-22T13:45:09.218Z,10.50
2018-12-22T13:47:38.392Z,10.50
2018-12-22T13:50:08.002Z,10.50
2018-12-22T13:52:36.932Z,10.40
2018-12-22T13:55:06.762Z,10.40
2018-12-22T13:57:37.255Z,10.30
2018-12-22T14:00:10.102Z,10.10
2018-12-22T14:02:39.781Z,10.00
2018-12-22T14:05:10.905Z,11.10
2018-12-22T14:07:39.652Z,12.30
2018-12-22T14:10:10.013Z,12.20
2018-12-22T14:12:38.904Z,12.70
2018-12-22T14:15:12.401Z,12.90
2018-12-22T14:17:53.142Z,12.90
2018-12-22T14:20:22.953Z,12.10
2018-12-22T14:22:52.264Z,11.50
2018-12-22T14:25:25.319Z,11.10
2018-12-22T14:27:54.527Z,10.70
2018-12-22T14:30:23.579Z,10.50
2018-12-22T14:32:52.498Z,10.30
2018-12-22T14:35:32.871Z,10.20
2018-12-22T14:38:01.806Z,10.20
2018-12-22T14:40:30.838Z,10.20
2018-12-22T14:42:59.834Z,10.10
2018-12-22T14:45:29.145Z,10.10
2018-12-22T14:47:58.021Z,10.10
2018-12-22T14:50:31.038Z,10.10
2018-12-22T14:52:59.867Z,10.10
2018-12-22T15:05:25.957Z,9.80
2018-12-22T15:07:54.828Z,9.80
2018-12-22T15:12:51.790Z,9.80
2018-12-22T15:15:20.591Z,9.70
2018-12-22T15:17:49.176Z,9.70
2018-12-22T15:20:19.797Z,9.70
2018-12-22T15:22:48.380Z,9.70
2018-12-22T15:25:17.352Z,9.70
2018-12-22T15:27:45.991Z,9.70
2018-12-22T15:30:15.276Z,9.70
2018-12-22T15:32:46.489Z,9.60
2018-12-22T15:35:14.848Z,9.60
2018-12-22T15:37:45.711Z,9.60
2018-12-22T15:40:14.510Z,9.60
2018-12-22T15:45:16.315Z,9.50
2018-12-22T15:47:45.248Z,9.20
2018-12-22T15:50:16.508Z,9.40
2018-12-22T15:52:45.094Z,9.20
2018-12-22T15:55:14.094Z,9.30
2018-12-22T15:57:42.812Z,9.30
2018-12-22T16:00:12.843Z,9.40
2018-12-22T16:02:41.756Z,9.20
2018-12-22T16:05:10.969Z,9.10
2018-12-22T16:10:11.686Z,9.20
2018-12-22T16:12:40.448Z,9.20
2018-12-22T16:15:12.344Z,9.20
2018-12-22T16:20:10.695Z,9.40
2018-12-22T16:22:41.135Z,9.50
2018-12-22T16:27:40.256Z,9.40
2018-12-22T16:30:17.841Z,9.60
2018-12-22T16:32:48.183Z,9.60
2018-12-22T16:35:19.835Z,9.70
2018-12-22T16:40:22.465Z,9.90
2018-12-22T16:42:53.552Z,9.80
2018-12-22T16:45:22.258Z,9.60
2018-12-22T16:47:51.062Z,9.70
2018-12-22T16:50:19.904Z,9.60
2018-12-22T16:52:49.360Z,9.50
2018-12-22T16:55:17.928Z,9.70
2018-12-22T17:00:22.496Z,9.70
2018-12-22T17:05:23.603Z,9.40
2018-12-22T17:07:52.089Z,9.20
2018-12-22T17:10:20.910Z,9.20
2018-12-22T17:12:49.489Z,9.30
2018-12-22T17:15:22.251Z,9.20
2018-12-22T17:17:49.856Z,9.10
2018-12-22T17:20:18.977Z,9.00
2018-12-22T17:24:28.634Z,9.00
2018-12-22T17:26:58.620Z,9.00
2018-12-22T17:31:55.685Z,9.10
2018-12-22T17:36:52.703Z,9.40
2018-12-22T17:39:21.367Z,9.70
2018-12-22T17:41:50.403Z,9.60
2018-12-22T17:44:19.025Z,9.50
2018-12-22T17:46:48.398Z,9.50
2018-12-22T17:49:17.021Z,9.50
2018-12-22T17:51:45.888Z,9.50
2018-12-22T17:54:14.722Z,9.80
2018-12-22T17:59:11.820Z,9.70
2018-12-22T18:01:41.804Z,9.50
2018-12-22T18:04:10.596Z,9.60
2018-12-22T18:06:39.715Z,9.50
2018-12-22T18:09:09.792Z,9.50
2018-12-22T18:11:38.479Z,9.50
2018-12-22T18:14:07.581Z,9.60
2018-12-22T18:16:36.214Z,9.50
2018-12-22T18:19:05.436Z,9.70
2018-12-22T18:26:30.737Z,9.60
2018-12-22T18:31:27.964Z,9.50
2018-12-22T18:33:56.834Z,9.50
2018-12-22T18:36:25.847Z,9.40
2018-12-22T18:38:54.759Z,9.40
2018-12-22T18:41:23.418Z,9.50
2018-12-22T18:43:51.922Z,9.30
2018-12-22T18:46:21.035Z,9.20
2018-12-22T18:48:49.534Z,9.20
2018-12-22T18:51:18.242Z,9.20
2018-12-22T18:53:46.818Z,9.20
2018-12-22T18:56:15.382Z,9.20
2018-12-22T18:58:44.242Z,9.20
2018-12-22T19:01:12.910Z,9.30
2018-12-22T19:03:44.883Z,9.40
2018-12-22T19:06:12.302Z,9.40
2018-12-22T19:08:41.121Z,9.50
2018-12-22T19:11:11.995Z,9.50
2018-12-22T19:13:40.923Z,9.60
2018-12-22T19:16:09.755Z,9.50
2018-12-22T19:18:38.575Z,9.40
2018-12-22T19:21:07.290Z,9.30
2018-12-22T19:23:36.100Z,9.20
2018-12-22T19:26:04.693Z,9.10
2018-12-22T19:28:33.968Z,9.10
2018-12-22T19:31:02.521Z,9.20
2018-12-22T19:33:31.191Z,9.20
2018-12-22T19:35:59.716Z,9.20
2018-12-22T19:38:28.488Z,9.10
2018-12-22T19:40:57.201Z,8.80
2018-12-22T19:43:25.694Z,8.80
2018-12-22T19:45:54.570Z,8.80
2018-12-22T19:48:23.058Z,8.90
2018-12-22T19:50:51.619Z,8.80
2018-12-22T19:53:20.434Z,8.90
2018-12-22T19:55:49.129Z,9.00
2018-12-22T19:58:17.803Z,9.00
2018-12-22T20:00:46.411Z,8.90
2018-12-22T20:03:14.980Z,8.90
2018-12-22T20:05:43.503Z,9.00
2018-12-22T20:08:12.531Z,8.90
2018-12-22T20:10:41.433Z,9.00
2018-12-22T20:13:10.342Z,9.00
2018-12-22T20:15:39.627Z,9.00
2018-12-22T20:18:08.366Z,9.00
2018-12-22T20:20:36.855Z,9.00
2018-12-22T20:23:05.465Z,9.10
2018-12-22T20:25:34.279Z,9.10
2018-12-22T20:28:03.005Z,9.10
2018-12-22T20:30:31.842Z,9.10
2018-12-22T20:33:00.595Z,9.00
2018-12-22T20:35:29.272Z,9.00
2018-12-22T20:37:57.988Z,9.00
2018-12-22T20:40:26.539Z,9.00
2018-12-22T20:42:55.120Z,9.10
2018-12-22T20:45:23.693Z,9.10
2018-12-22T20:47:52.206Z,9.20
2018-12-22T20:50:20.771Z,9.20
2018-12-22T20:52:49.759Z,9.10
2018-12-22T20:55:18.576Z,9.10
2018-12-22T20:57:47.254Z,9.10
2018-12-22T21:00:15.971Z,9.00
2018-12-22T21:02:44.528Z,9.10
2018-12-22T21:05:13.423Z,9.20
2018-12-22T21:07:42.143Z,9.10
2018-12-22T21:10:11.955Z,9.20
2018-12-22T21:12:40.671Z,9.20
2018-12-22T21:15:09.522Z,9.20
2018-12-22T21:17:38.255Z,9.30
2018-12-22T21:20:07.597Z,9.40
2018-12-22T21:22:36.338Z,9.40
2018-12-22T21:25:05.593Z,9.40
2018-12-22T21:27:34.308Z,9.40
2018-12-22T21:30:03.041Z,9.40
2018-12-22T21:32:31.843Z,9.40
2018-12-22T21:35:00.586Z,9.50
2018-12-22T21:37:29.513Z,9.30
2018-12-22T21:39:58.140Z,9.30
2018-12-22T21:42:26.769Z,9.30
2018-12-22T21:44:55.318Z,9.40
2018-12-22T21:47:24.251Z,9.40
2018-12-22T21:49:53.127Z,9.30
2018-12-22T21:52:21.758Z,9.20
2018-12-22T21:54:50.403Z,9.40
2018-12-22T21:57:19.143Z,9.30
2018-12-22T21:59:47.793Z,9.30
2018-12-22T22:02:16.474Z,9.20
2018-12-22T22:04:45.051Z,9.30
2018-12-22T22:07:13.787Z,9.20
2018-12-22T22:09:42.457Z,9.30
2018-12-22T22:12:11.160Z,9.30
2018-12-22T22:14:39.867Z,9.40
2018-12-22T22:17:08.658Z,9.30
2018-12-22T22:19:37.261Z,9.30
2018-12-22T22:22:06.009Z,9.30
2018-12-22T22:24:34.880Z,9.30
2018-12-22T22:27:03.394Z,9.20
2018-12-22T22:29:32.235Z,9.30
2018-12-22T22:32:00.979Z,9.30
2018-12-22T22:34:29.551Z,9.40
2018-12-22T22:36:58.046Z,9.30
2018-12-22T22:39:27.065Z,9.20
2018-12-22T22:41:55.896Z,9.20
2018-12-22T22:44:24.854Z,9.20
2018-12-22T22:46:54.117Z,9.30
2018-12-22T22:49:22.735Z,9.30
2018-12-22T22:51:51.529Z,9.30
2018-12-22T22:54:20.062Z,9.20
2018-12-22T22:56:48.961Z,9.10
2018-12-22T22:59:17.558Z,9.20
2018-12-22T23:01:46.195Z,9.10
2018-12-22T23:04:15.008Z,9.20
2018-12-22T23:06:43.618Z,9.20
2018-12-22T23:09:12.322Z,9.30
2018-12-22T23:11:41.122Z,9.20
2018-12-22T23:14:09.645Z,9.20
2018-12-22T23:16:43.589Z,9.20
2018-12-22T23:19:12.188Z,9.20
2018-12-22T23:21:40.800Z,9.10
2018-12-22T23:24:09.287Z,9.20
2018-12-22T23:26:37.960Z,9.20
2018-12-22T23:29:06.734Z,9.20
2018-12-22T23:31:35.428Z,9.30
2018-12-22T23:34:04.171Z,9.30
2018-12-22T23:36:33.342Z,9.20
2018-12-22T23:39:01.979Z,9.10
2018-12-22T23:41:30.702Z,9.10
2018-12-22T23:43:59.399Z,9.10
2018-12-22T23:46:27.951Z,9.10
2018-12-22T23:48:57.379Z,9.10
2018-12-22T23:51:25.851Z,9.20
2018-12-22T23:53:54.486Z,9.20
2018-12-22T23:56:23.114Z,9.20
2018-12-22T23:58:51.583Z,9.20
